Sioux Lookout Airport
CYXL : now visible

Aeroporto :











RITROVATECI SU...

 
LOGIN :

Iscrizione | Disclaimer

   EN    FR    IT 

 









Sommario :    VFR   VFR Marginale   IFR   IFR Intensivo   IFR Molto Intensivo
Visibilità : 
Base nubi : 
>= 8 km
>= 3000ft
5 / 8 km
1000 / 3000 ft
1500m / 5 km
500 / 1000 ft
800 / 1500m
200 / 500 ft
< 800m
< 200 ft
Simboli :   Temporali  Nebbia  Neve Forte  Precipitazioni Forti  Vento > 20 kt






- Altitudine del aeroporto : 1258 ft
- Codice IATA : YXL


CYXL - Sioux Lookout

ULTIMO METAR :
  • 040300Z 28010KT 6SM -SN BKN013 OVC058 M07/M09 A3007 RMK SC6SC2 SLP210

METARs OBSOLETI :
  • 040245Z 29006KT 5SM -SN BKN015 OVC055 M07/M09 A3007 RMK SC5SC3 SLP207
  • 040211Z 28009G16KT 8SM -SHSN FEW005 BKN015 OVC050 M07/M09 A3008 RMK SF1SC6SC2 SF TR CVCTV CLD EMBD PRESRR SLP210
  • 040200Z 28009KT 5SM -SHSN VV012 M07/M09 A3007 RMK SN8 SLP208
  • 040100Z 28006KT 1SM -SHSN BR VV005 M06/M08 A3005 RMK SN8 VIS VRB 3/4-1 1/4 SLP200

TAF AMD TAF CYXL
Valido dal 04 a 02 ore il 04 a 14 ore UTC


040220Z 0402/0414 28010KT P6SM SCT015 OVC025
TEMPO 0402/0411 5SM -SN OVC015
FM041300 27010KT P6SM SCT025 RMK NXT FCST BY 040800Z



MetMap, La meteo Aeronautica in un colpo d'occhio ! - Copyright ORBIFLY Dicembre 2007 - Disclaimer

ORBIFLY MET'MAP TEAM :

Programmazione e sviluppo : Alexandra Zaïnal
Concezione : Baudouin d'Aumeries
Aiuto per la programmazione : Marc-Olivier Méhu
Supporto tecnico e logistico : Manuel Goepfert
Aiuto per la traduzione : Arnaldo La Scala

Contatto : metmap@orbifly.com




FONTI E CREDITI :

   NOAA       Earth
Advisory